Portada
METAR-TAF:

METAR-TAF

Aeropuertos :

Oberpfaffenhofen, Alemania

latitud: 48-05N, longitud: 011-17E, altitud: 600 m

Observación

El informe se hizo hace 43 minutos, a las 05:50 UTC
Viento 4 kt del noroeste
Temperatura 12°C
Humedad 94%
Presión 1007 hPa
Visibilidad 10 km o más

METAR: EDMO 070550Z AUTO 32004KT 9999 // FEW006/// OVC014/// 12/11 Q1007

Hora: 08:33 (06:33 UTC)


TAF: falta

Observaciones y pronósticos meteorológicos de más de 4000 aeropuertos (mensajes METAR y TAF).

Los puntos amarillos y rojos representan las estaciones disponibles.

Ponga el ratón en el punto deseado para ver el nombre de la estación.

Haga clic para ver las observaciones y los pronósticos meteorológicos.

Para cambiar el mapa : haga clic en los botones verdes con una cruz de color negro para hacer un zoom, en el botón verde con un guión para alejar o en las flechas verdes para mapas adyacentes.


METAR-TAF: